Time;durP1;ratioP1;P1;durP2;ratioP2;P2;SDS_P1;SDS_P2;PMS_P1;PMS_P2;Temp;Humidity;BMP_temperature;BMP_pressure;BME280_temperature;BME280_humidity;BME280_pressure;Samples;Min_cycle;Max_cycle;Signal;HPM_P1;HPM_P2
2022/08/15 00:01:24;;;;;;;8.63;6.10;;;24.70;59.30;;;;;;5041340;28;20148;-70
2022/08/15 00:03:52;;;;;;;7.28;6.20;;;24.70;58.60;;;;;;4998248;28;20815;-70
2022/08/15 00:06:26;;;;;;;9.18;6.78;;;24.60;58.90;;;;;;4994581;28;20080;-69
2022/08/15 00:08:54;;;;;;;7.78;6.25;;;24.60;59.10;;;;;;5011662;28;20149;-68
2022/08/15 00:11:24;;;;;;;7.67;6.40;;;24.60;59.30;;;;;;5040701;28;20044;-69
2022/08/15 00:13:53;;;;;;;8.70;6.25;;;24.60;59.40;;;;;;5017305;28;20269;-68
2022/08/15 00:16:18;;;;;;;9.48;6.38;;;24.60;59.30;;;;;;5010768;28;20447;-68
2022/08/15 00:18:45;;;;;;;7.50;6.63;;;24.60;59.40;;;;;;4995749;28;20049;-69
2022/08/15 00:21:10;;;;;;;8.13;6.07;;;24.50;59.50;;;;;;5025923;28;20514;-68
2022/08/15 00:23:38;;;;;;;8.38;6.00;;;24.50;59.70;;;;;;5029312;28;20041;-69
2022/08/15 00:26:04;;;;;;;7.23;6.53;;;24.50;59.60;;;;;;5014141;28;20048;-70
2022/08/15 00:28:29;;;;;;;8.55;6.60;;;24.50;59.60;;;;;;5023856;28;20049;-70
2022/08/15 00:30:55;;;;;;;10.77;7.28;;;24.50;59.80;;;;;;5027653;28;20505;-70
2022/08/15 00:33:21;;;;;;;9.45;6.50;;;24.50;59.80;;;;;;4995759;28;20501;-69
2022/08/15 00:35:48;;;;;;;7.35;6.38;;;24.40;60.10;;;;;;5010340;28;20144;-69
2022/08/15 00:38:17;;;;;;;11.48;7.60;;;24.40;60.20;;;;;;4999042;28;20065;-68
2022/08/15 00:43:41;;;;;;;9.60;6.30;;;24.40;60.70;;;;;;5010897;28;20383;-68
2022/08/15 00:46:08;;;;;;;7.82;6.53;;;24.30;60.70;;;;;;5011008;28;20542;-69
2022/08/15 00:48:43;;;;;;;10.32;7.22;;;24.30;60.60;;;;;;5014255;28;20478;-68
2022/08/15 00:51:19;;;;;;;7.65;6.57;;;24.20;60.60;;;;;;5003101;28;20049;-69
2022/08/15 00:53:52;;;;;;;9.23;6.90;;;24.20;60.60;;;;;;5041866;28;20136;-68
2022/08/15 00:56:18;;;;;;;8.70;7.10;;;24.10;61.30;;;;;;5038520;28;20759;-70
2022/08/15 00:58:43;;;;;;;8.38;6.90;;;24.10;61.20;;;;;;5000308;28;20052;-68
2022/08/15 01:01:10;;;;;;;9.45;7.45;;;24.20;61.00;;;;;;5010556;28;20128;-68
2022/08/15 01:03:39;;;;;;;7.75;6.25;;;24.20;61.20;;;;;;5009952;28;20680;-68
2022/08/15 01:06:05;;;;;;;9.98;6.95;;;24.10;61.30;;;;;;5000191;28;20049;-69
2022/08/15 01:08:35;;;;;;;9.43;7.00;;;24.00;61.30;;;;;;4993433;28;20135;-68
2022/08/15 01:11:02;;;;;;;10.57;6.43;;;24.00;61.30;;;;;;5015683;28;20152;-68
2022/08/15 01:13:32;;;;;;;10.63;6.80;;;23.90;61.40;;;;;;4993827;28;20049;-68
2022/08/15 01:15:58;;;;;;;7.63;6.85;;;23.90;61.40;;;;;;5009421;28;20049;-68
2022/08/15 01:18:23;;;;;;;9.80;6.82;;;23.90;62.00;;;;;;5038226;28;20055;-68
2022/08/15 01:20:49;;;;;;;8.02;6.93;;;23.90;62.00;;;;;;4980308;28;20061;-68
2022/08/15 01:23:18;;;;;;;8.82;6.60;;;23.80;62.00;;;;;;5009293;28;20054;-69
2022/08/15 01:25:57;;;;;;;7.70;6.95;;;23.80;62.10;;;;;;5009437;28;20056;-68
2022/08/15 01:28:27;;;;;;;9.90;6.80;;;23.80;62.00;;;;;;4995668;28;20124;-68
2022/08/15 01:30:58;;;;;;;8.40;6.72;;;23.70;62.70;;;;;;5011337;28;20456;-68
2022/08/15 01:33:25;;;;;;;7.53;6.72;;;23.70;62.30;;;;;;5016007;28;20080;-68
2022/08/15 01:35:51;;;;;;;7.60;6.80;;;23.70;62.50;;;;;;4998726;28;20045;-68
2022/08/15 01:38:22;;;;;;;8.82;6.70;;;23.70;62.50;;;;;;5014092;28;20565;-68
2022/08/15 01:41:03;;;;;;;10.27;6.53;;;23.60;62.50;;;;;;5010745;28;20052;-68
2022/08/15 01:43:31;;;;;;;7.60;6.28;;;23.60;62.70;;;;;;5009090;28;20664;-67
2022/08/15 01:45:58;;;;;;;8.53;6.87;;;23.60;62.70;;;;;;4982314;28;20098;-68
2022/08/15 01:48:27;;;;;;;9.55;6.88;;;23.50;62.80;;;;;;4993204;28;20049;-69
2022/08/15 01:51:02;;;;;;;12.80;7.07;;;23.50;63.00;;;;;;5038405;28;20371;-68
2022/08/15 01:53:35;;;;;;;10.18;6.68;;;23.40;62.70;;;;;;4978454;28;20068;-68
2022/08/15 01:56:13;;;;;;;8.27;7.28;;;23.40;63.20;;;;;;4998217;28;20575;-70
2022/08/15 01:58:40;;;;;;;8.18;6.35;;;23.40;62.70;;;;;;5008621;28;20181;-68
2022/08/15 02:01:11;;;;;;;10.00;7.03;;;23.40;63.10;;;;;;5018844;28;20045;-68
2022/08/15 02:03:38;;;;;;;8.05;6.93;;;23.40;62.70;;;;;;5025900;28;20064;-68
2022/08/15 02:06:10;;;;;;;7.38;6.57;;;23.40;62.80;;;;;;5014870;28;20069;-70
2022/08/15 02:08:37;;;;;;;7.82;6.93;;;23.30;63.30;;;;;;4992329;28;20046;-69
2022/08/15 02:11:11;;;;;;;7.32;6.63;;;23.20;63.70;;;;;;5008745;28;20075;-68
2022/08/15 02:13:37;;;;;;;9.82;7.15;;;23.10;63.70;;;;;;4999569;28;20100;-68
2022/08/15 02:16:03;;;;;;;8.93;7.47;;;23.10;63.90;;;;;;5015428;28;20928;-69
2022/08/15 02:18:29;;;;;;;8.15;7.35;;;23.10;63.80;;;;;;4982848;28;20087;-68
2022/08/15 02:20:57;;;;;;;9.38;6.30;;;23.10;63.80;;;;;;4992537;28;20080;-68
2022/08/15 02:23:23;;;;;;;9.73;7.15;;;23.10;64.30;;;;;;5008216;28;20136;-68
2022/08/15 02:25:49;;;;;;;7.80;7.00;;;23.10;64.30;;;;;;5011556;28;20462;-70
2022/08/15 02:28:15;;;;;;;10.00;6.57;;;23.00;64.20;;;;;;5012626;28;20515;-67
2022/08/15 02:30:42;;;;;;;9.18;7.13;;;23.00;64.40;;;;;;5011218;28;20061;-69
2022/08/15 02:33:08;;;;;;;9.38;7.13;;;23.00;64.50;;;;;;5008515;28;20519;-68
2022/08/15 02:35:33;;;;;;;9.80;7.30;;;22.90;64.60;;;;;;4992622;28;20049;-68
2022/08/15 02:38:01;;;;;;;8.00;7.20;;;22.90;64.60;;;;;;5008645;28;20157;-69
2022/08/15 02:40:27;;;;;;;8.80;7.55;;;22.80;64.80;;;;;;5009424;28;20809;-68
2022/08/15 02:42:53;;;;;;;8.07;7.07;;;22.80;65.80;;;;;;5011844;28;20064;-68
2022/08/15 02:45:18;;;;;;;10.05;7.45;;;22.70;65.50;;;;;;4976886;28;20073;-69
2022/08/15 02:47:44;;;;;;;10.60;7.35;;;22.70;65.30;;;;;;5008338;28;20050;-68
2022/08/15 02:50:12;;;;;;;10.20;7.50;;;22.70;65.50;;;;;;5007860;28;20057;-68
2022/08/15 02:52:39;;;;;;;9.70;7.77;;;22.60;65.60;;;;;;5008917;28;20045;-69
2022/08/15 02:55:06;;;;;;;11.40;7.18;;;22.60;65.90;;;;;;5007830;28;20510;-69
2022/08/15 02:57:32;;;;;;;10.40;7.40;;;22.60;66.30;;;;;;5017165;28;20056;-68
2022/08/15 02:59:57;;;;;;;9.93;7.28;;;22.50;65.80;;;;;;4992252;28;20119;-68
2022/08/15 03:02:25;;;;;;;9.15;7.07;;;22.60;65.60;;;;;;4998238;28;20069;-68
2022/08/15 03:04:50;;;;;;;12.48;7.97;;;22.50;65.70;;;;;;5016232;28;20046;-68
2022/08/15 03:07:16;;;;;;;9.07;6.90;;;22.50;65.80;;;;;;5020897;28;20072;-69
2022/08/15 03:09:43;;;;;;;11.13;6.93;;;22.50;65.70;;;;;;5009075;28;20129;-69
2022/08/15 03:12:15;;;;;;;9.25;7.50;;;22.50;66.10;;;;;;4992177;28;20100;-68
2022/08/15 03:14:40;;;;;;;8.82;7.25;;;22.40;66.30;;;;;;5004497;28;20239;-68
2022/08/15 03:17:08;;;;;;;11.27;7.50;;;22.40;65.80;;;;;;5008441;28;20476;-68
2022/08/15 03:19:35;;;;;;;8.70;7.03;;;22.30;66.30;;;;;;5036857;28;20144;-69
2022/08/15 03:22:01;;;;;;;8.63;7.40;;;22.20;66.90;;;;;;5005888;28;20143;-69
2022/08/15 03:24:27;;;;;;;9.98;7.75;;;22.10;67.00;;;;;;5022119;28;20691;-69
2022/08/15 03:26:53;;;;;;;8.18;7.38;;;22.10;67.40;;;;;;5023208;28;20053;-69
2022/08/15 03:29:19;;;;;;;8.95;7.38;;;22.10;67.10;;;;;;5029073;28;20045;-68
2022/08/15 03:31:47;;;;;;;7.90;7.13;;;22.10;67.00;;;;;;4995838;28;20045;-69
2022/08/15 03:34:14;;;;;;;8.77;7.88;;;22.20;66.70;;;;;;5019489;28;20056;-69
2022/08/15 03:36:44;;;;;;;9.98;7.30;;;22.20;66.60;;;;;;4991605;28;20045;-69
2022/08/15 03:39:10;;;;;;;9.00;7.22;;;22.10;67.00;;;;;;5011715;28;20660;-68
2022/08/15 03:41:36;;;;;;;9.90;7.32;;;22.00;66.80;;;;;;5048500;28;20045;-69
2022/08/15 03:44:02;;;;;;;13.13;7.70;;;22.00;66.70;;;;;;5011569;28;20052;-69
2022/08/15 03:46:28;;;;;;;11.07;8.20;;;22.00;67.30;;;;;;5015545;28;20077;-69
2022/08/15 03:48:56;;;;;;;8.32;7.25;;;22.00;67.10;;;;;;5038877;28;20041;-68
2022/08/15 03:51:22;;;;;;;9.25;7.63;;;21.90;67.40;;;;;;5020587;28;20077;-69
2022/08/15 03:53:50;;;;;;;10.20;8.18;;;21.90;67.10;;;;;;5016623;28;20054;-69
2022/08/15 03:56:21;;;;;;;10.13;7.20;;;21.90;67.40;;;;;;5007924;28;20046;-69
2022/08/15 03:58:48;;;;;;;11.23;8.00;;;21.90;67.30;;;;;;5011963;28;20130;-69
2022/08/15 04:01:17;;;;;;;9.25;8.32;;;21.90;67.40;;;;;;5013249;28;20048;-69
2022/08/15 04:03:44;;;;;;;9.85;7.38;;;22.00;67.00;;;;;;5016503;28;20053;-68
2022/08/15 04:06:10;;;;;;;8.85;7.40;;;21.90;67.50;;;;;;5011681;28;20041;-69
2022/08/15 04:08:36;;;;;;;9.25;7.40;;;21.80;67.40;;;;;;4994693;28;20157;-68
2022/08/15 04:11:03;;;;;;;9.43;7.30;;;21.90;67.30;;;;;;5011219;28;20479;-69
2022/08/15 04:13:29;;;;;;;8.57;7.68;;;21.90;67.50;;;;;;5020886;28;20115;-69
2022/08/15 04:15:56;;;;;;;9.85;7.57;;;21.90;67.50;;;;;;5011249;28;20160;-69
2022/08/15 04:18:24;;;;;;;8.25;7.35;;;21.80;67.90;;;;;;5019036;28;20057;-70
2022/08/15 04:20:51;;;;;;;9.60;7.78;;;21.80;67.60;;;;;;5001417;28;20045;-69
2022/08/15 04:23:16;;;;;;;9.85;8.23;;;21.80;68.00;;;;;;5011660;28;21090;-69
2022/08/15 04:25:42;;;;;;;8.73;7.85;;;21.70;67.50;;;;;;5014303;28;20042;-69
2022/08/15 04:28:09;;;;;;;8.80;7.68;;;21.70;68.10;;;;;;5012731;28;20046;-70
2022/08/15 04:30:40;;;;;;;8.18;7.38;;;21.80;67.70;;;;;;5012225;28;20053;-69
2022/08/15 04:33:12;;;;;;;9.75;8.55;;;21.80;67.50;;;;;;5023640;28;20053;-70
2022/08/15 04:35:40;;;;;;;8.52;7.60;;;21.80;67.80;;;;;;4994365;28;20140;-69
2022/08/15 04:38:05;;;;;;;8.52;7.63;;;21.80;67.60;;;;;;5017041;28;20181;-69
2022/08/15 04:40:31;;;;;;;11.38;7.47;;;21.90;67.70;;;;;;5010294;28;20411;-69
2022/08/15 04:43:00;;;;;;;9.23;7.28;;;21.80;67.60;;;;;;5012122;28;20049;-69
2022/08/15 04:45:27;;;;;;;9.88;8.35;;;21.80;67.60;;;;;;5012957;28;20451;-69
2022/08/15 04:47:53;;;;;;;11.20;7.80;;;21.80;67.70;;;;;;5009684;28;20045;-69
2022/08/15 04:50:19;;;;;;;9.60;7.57;;;21.80;67.60;;;;;;4977717;28;20159;-69
2022/08/15 04:52:53;;;;;;;9.88;8.05;;;21.80;68.10;;;;;;5011742;28;20164;-69
2022/08/15 04:55:19;;;;;;;9.32;8.13;;;21.70;68.50;;;;;;5009598;28;20052;-69
2022/08/15 04:57:45;;;;;;;9.52;7.80;;;21.80;68.80;;;;;;5010815;28;20379;-70
2022/08/15 05:00:12;;;;;;;8.90;7.93;;;21.80;69.10;;;;;;5000840;28;20045;-69
2022/08/15 05:02:38;;;;;;;12.02;8.25;;;21.90;68.90;;;;;;5010111;28;20042;-69
2022/08/15 05:05:05;;;;;;;10.20;7.85;;;21.90;68.60;;;;;;5015197;28;20079;-69
2022/08/15 05:07:31;;;;;;;9.02;7.75;;;21.90;68.30;;;;;;5022241;28;20163;-69
2022/08/15 05:09:58;;;;;;;9.98;8.18;;;21.90;67.70;;;;;;5014835;28;20829;-69
2022/08/15 05:12:24;;;;;;;10.93;8.57;;;22.00;67.80;;;;;;5010783;28;20115;-68
2022/08/15 05:14:50;;;;;;;9.57;8.57;;;22.00;67.80;;;;;;5006391;28;20129;-69
2022/08/15 05:17:16;;;;;;;10.98;8.70;;;22.00;68.10;;;;;;5016315;28;20050;-68
2022/08/15 05:19:42;;;;;;;11.00;8.18;;;22.10;67.90;;;;;;5020853;28;20045;-70
2022/08/15 05:22:08;;;;;;;10.80;8.15;;;22.10;67.90;;;;;;5000275;28;20092;-69
2022/08/15 05:24:35;;;;;;;8.63;7.75;;;22.10;67.80;;;;;;4996963;28;20037;-69
2022/08/15 05:27:01;;;;;;;10.27;7.88;;;22.10;67.50;;;;;;5016116;28;20060;-69
2022/08/15 05:29:27;;;;;;;8.93;8.02;;;22.20;67.70;;;;;;5057520;28;20065;-68
2022/08/15 05:31:53;;;;;;;10.43;8.48;;;22.20;67.60;;;;;;5002466;28;20156;-68
2022/08/15 05:34:19;;;;;;;9.82;7.70;;;22.30;67.50;;;;;;5026411;28;20156;-68
2022/08/15 05:36:48;;;;;;;9.93;8.68;;;22.30;67.30;;;;;;5043409;28;20051;-68
2022/08/15 05:39:18;;;;;;;8.38;7.53;;;22.30;67.40;;;;;;5014695;28;20394;-68
2022/08/15 05:42:03;;;;;;;10.88;7.53;;;22.40;67.40;;;;;;5002026;28;20046;-69
2022/08/15 05:44:38;;;;;;;14.90;8.18;;;22.40;67.70;;;;;;5014413;28;20088;-69
2022/08/15 05:47:09;;;;;;;13.05;8.70;;;22.40;67.70;;;;;;4993450;28;20049;-69
2022/08/15 05:49:45;;;;;;;9.13;7.97;;;22.40;67.70;;;;;;5014300;28;20501;-69
2022/08/15 05:52:30;;;;;;;11.50;8.05;;;22.50;67.70;;;;;;5011796;28;20080;-69
2022/08/15 05:55:13;;;;;;;10.63;8.52;;;22.50;67.70;;;;;;5017683;28;20115;-68
2022/08/15 05:58:11;;;;;;;9.50;8.25;;;22.60;67.60;;;;;;5025172;28;20056;-68
2022/08/15 06:00:40;;;;;;;10.60;8.68;;;22.60;67.80;;;;;;5020117;28;20045;-67
2022/08/15 06:03:11;;;;;;;11.95;8.90;;;22.60;67.80;;;;;;5040409;28;20045;-69
2022/08/15 06:05:58;;;;;;;11.02;8.45;;;22.50;67.90;;;;;;4992702;28;20046;-69
2022/08/15 06:08:27;;;;;;;9.95;8.95;;;22.60;68.30;;;;;;5010117;28;20053;-70
2022/08/15 06:11:09;;;;;;;10.43;8.57;;;22.60;69.00;;;;;;5021435;28;20143;-68
2022/08/15 06:13:56;;;;;;;10.95;8.00;;;22.60;68.70;;;;;;5023764;28;20060;-68
2022/08/15 06:16:37;;;;;;;13.07;8.60;;;22.70;68.90;;;;;;5020547;28;20487;-68
2022/08/15 06:19:06;;;;;;;11.13;8.02;;;22.80;68.60;;;;;;5035991;28;20135;-69
2022/08/15 06:21:50;;;;;;;14.73;9.13;;;22.80;68.80;;;;;;5012643;28;20472;-69
2022/08/15 06:24:35;;;;;;;15.40;9.15;;;22.90;68.50;;;;;;5019050;28;20041;-68
2022/08/15 06:27:28;;;;;;;10.43;8.45;;;23.00;68.00;;;;;;5005386;28;20055;-68
2022/08/15 06:30:01;;;;;;;11.73;8.73;;;23.00;68.10;;;;;;5023459;28;20061;-67
2022/08/15 06:32:52;;;;;;;10.50;8.60;;;23.10;68.10;;;;;;5009287;28;20596;-68
2022/08/15 06:35:55;;;;;;;11.38;9.40;;;23.10;68.20;;;;;;5012981;28;20042;-67
2022/08/15 06:38:44;;;;;;;11.57;8.30;;;23.20;68.10;;;;;;5033442;28;20088;-67
2022/08/15 06:41:26;;;;;;;12.98;8.65;;;23.20;68.20;;;;;;5018922;28;20045;-68
2022/08/15 06:43:53;;;;;;;10.10;8.32;;;23.30;68.20;;;;;;5020121;28;20046;-66
2022/08/15 06:46:21;;;;;;;11.55;9.40;;;23.30;68.10;;;;;;5007424;28;20052;-64
2022/08/15 06:48:48;;;;;;;12.18;8.88;;;23.40;68.00;;;;;;4991988;28;20050;-69
2022/08/15 06:51:15;;;;;;;10.05;9.02;;;23.40;67.80;;;;;;5018057;28;20072;-68
2022/08/15 06:53:52;;;;;;;12.55;9.32;;;23.40;67.70;;;;;;4994795;28;20436;-68
2022/08/15 06:56:34;;;;;;;12.05;8.48;;;23.40;67.30;;;;;;5019514;28;20128;-67
2022/08/15 06:59:18;;;;;;;12.02;8.73;;;23.40;67.50;;;;;;5016597;28;20053;-69
2022/08/15 07:01:51;;;;;;;12.15;8.65;;;23.40;67.70;;;;;;5023394;28;20072;-67
2022/08/15 07:04:45;;;;;;;11.45;8.30;;;23.50;67.60;;;;;;5024472;28;20041;-67
2022/08/15 07:07:18;;;;;;;10.90;9.80;;;23.50;67.70;;;;;;5038171;28;20051;-67
2022/08/15 07:10:00;;;;;;;15.02;7.90;;;23.60;67.60;;;;;;5044193;28;20130;-69
2022/08/15 07:12:56;;;;;;;9.68;8.43;;;23.60;67.30;;;;;;5004709;28;21081;-69
2022/08/15 07:15:25;;;;;;;12.48;8.38;;;23.60;67.20;;;;;;5008153;28;20104;-71
2022/08/15 07:18:02;;;;;;;13.15;8.45;;;23.70;66.80;;;;;;4999923;28;20057;-71
2022/08/15 07:20:28;;;;;;;16.30;8.90;;;23.80;67.00;;;;;;5006138;28;20049;-70
2022/08/15 07:22:54;;;;;;;10.13;8.07;;;23.70;67.40;;;;;;5016157;28;20046;-71
2022/08/15 07:25:26;;;;;;;9.10;8.18;;;23.80;66.90;;;;;;5009219;28;20046;-70
2022/08/15 07:28:03;;;;;;;13.35;7.95;;;23.90;67.70;;;;;;5024416;28;20426;-71
2022/08/15 07:31:04;;;;;;;11.40;7.97;;;24.00;67.30;;;;;;5040691;28;20061;-71
2022/08/15 07:33:41;;;;;;;10.13;8.75;;;24.00;67.40;;;;;;5009948;28;20347;-71
2022/08/15 07:36:24;;;;;;;10.07;8.07;;;24.10;66.70;;;;;;5024786;28;20054;-71
2022/08/15 07:38:51;;;;;;;9.18;8.20;;;24.20;66.90;;;;;;5057579;28;20053;-70
2022/08/15 07:41:22;;;;;;;12.18;8.32;;;24.30;66.40;;;;;;4997237;28;20041;-71
2022/08/15 07:43:49;;;;;;;12.32;8.35;;;24.30;66.40;;;;;;5022650;28;20434;-71
2022/08/15 07:46:34;;;;;;;9.45;8.38;;;24.40;66.30;;;;;;5039123;28;20045;-67
2022/08/15 07:49:07;;;;;;;10.13;7.57;;;24.50;66.30;;;;;;5019201;28;20462;-68
2022/08/15 07:51:42;;;;;;;11.25;7.95;;;24.50;66.10;;;;;;5013261;28;20045;-67
2022/08/15 07:54:50;;;;;;;10.05;8.70;;;24.60;66.20;;;;;;5041723;28;20050;-69
2022/08/15 07:57:26;;;;;;;9.10;8.00;;;24.70;66.10;;;;;;5021761;28;20037;-67
2022/08/15 08:00:04;;;;;;;11.65;8.07;;;24.80;66.10;;;;;;5016879;28;20755;-68
2022/08/15 08:02:40;;;;;;;10.65;7.85;;;24.90;65.80;;;;;;5021004;28;20151;-68
2022/08/15 08:05:06;;;;;;;9.15;7.88;;;25.00;65.50;;;;;;5051562;28;20132;-67
2022/08/15 08:07:49;;;;;;;13.45;8.48;;;25.10;64.40;;;;;;5007446;28;20057;-67
2022/08/15 08:10:17;;;;;;;12.98;8.43;;;25.20;63.90;;;;;;5024689;28;20072;-70
2022/08/15 08:13:13;;;;;;;11.52;8.30;;;25.30;63.90;;;;;;5015843;28;20510;-70
2022/08/15 08:16:14;;;;;;;10.90;7.82;;;25.50;63.40;;;;;;5017459;28;20052;-70
2022/08/15 08:19:04;;;;;;;13.65;8.13;;;25.70;62.90;;;;;;5003186;28;20057;-71
2022/08/15 08:21:56;;;;;;;9.88;7.95;;;25.70;62.20;;;;;;5022336;28;20049;-70
2022/08/15 08:24:53;;;;;;;13.55;7.97;;;25.80;62.30;;;;;;5015088;28;20037;-70
2022/08/15 08:27:52;;;;;;;11.75;8.23;;;25.90;62.10;;;;;;5021024;28;20049;-70
2022/08/15 08:30:22;;;;;;;10.73;7.85;;;26.00;62.10;;;;;;5017590;28;20564;-69
2022/08/15 08:32:56;;;;;;;11.95;8.50;;;26.10;61.40;;;;;;5015985;28;20049;-71
2022/08/15 08:35:26;;;;;;;10.02;7.60;;;26.20;61.30;;;;;;5020680;28;20057;-71
2022/08/15 08:37:57;;;;;;;13.23;8.05;;;26.20;61.20;;;;;;5020409;28;20049;-67
2022/08/15 08:43:26;;;;;;;17.63;8.05;;;26.40;59.90;;;;;;5013214;28;20045;-67
2022/08/15 08:46:10;;;;;;;10.52;7.35;;;26.50;58.10;;;;;;5015829;28;20048;-67
2022/08/15 08:48:58;;;;;;;11.43;7.45;;;26.60;58.80;;;;;;5015658;28;20131;-67
2022/08/15 08:51:42;;;;;;;11.40;7.63;;;26.70;58.20;;;;;;5013040;28;20379;-67
2022/08/15 08:54:15;;;;;;;14.02;7.05;;;26.70;57.70;;;;;;5010208;28;20103;-67
2022/08/15 08:56:45;;;;;;;11.90;7.13;;;26.80;57.20;;;;;;5012721;28;20093;-67
2022/08/15 18:25:10;;;;;;;12.90;11.13;;;22.90;89.90;;;;;;3619441;28;20049;-67
2022/08/15 18:27:44;;;;;;;13.30;11.25;;;22.90;90.10;;;;;;5008896;28;20080;-67
2022/08/15 18:30:36;;;;;;;14.70;11.05;;;22.90;90.50;;;;;;5000649;28;20091;-67
2022/08/15 18:33:27;;;;;;;13.75;11.13;;;22.90;90.10;;;;;;5002649;28;20111;-66
2022/08/15 18:36:07;;;;;;;11.95;10.50;;;22.80;90.20;;;;;;4994892;28;20602;-68
2022/08/15 18:38:34;;;;;;;13.13;11.40;;;22.80;90.20;;;;;;4995496;28;20069;-68
2022/08/15 18:41:06;;;;;;;14.80;11.18;;;22.80;90.60;;;;;;5007178;28;20108;-69
2022/08/15 18:43:41;;;;;;;13.23;10.95;;;22.80;90.50;;;;;;5005447;28;20052;-71
2022/08/15 18:46:11;;;;;;;13.20;11.10;;;22.80;90.30;;;;;;5018313;28;20129;-72
2022/08/15 18:48:37;;;;;;;15.18;11.20;;;22.80;90.40;;;;;;5043038;28;20053;-71
2022/08/15 18:51:04;;;;;;;13.48;10.93;;;22.80;90.30;;;;;;5012986;28;20045;-71
2022/08/15 18:53:30;;;;;;;15.40;10.95;;;22.80;90.40;;;;;;5016884;28;20065;-70
2022/08/15 18:55:57;;;;;;;12.80;10.95;;;22.80;90.70;;;;;;5007715;28;20049;-71
2022/08/15 18:58:32;;;;;;;17.48;12.70;;;22.80;90.80;;;;;;5015917;28;20041;-70
2022/08/15 19:01:04;;;;;;;16.20;13.80;;;22.70;91.00;;;;;;5011733;28;20537;-71
2022/08/15 19:03:30;;;;;;;15.73;11.30;;;22.70;91.00;;;;;;4989170;28;20152;-70
2022/08/15 19:06:12;;;;;;;11.82;10.55;;;22.70;91.00;;;;;;5013589;28;20910;-70
2022/08/15 19:08:43;;;;;;;16.67;11.15;;;22.70;90.90;;;;;;5056209;28;20050;-70
2022/08/15 19:11:18;;;;;;;14.68;11.80;;;22.60;90.90;;;;;;5006267;28;20053;-69
2022/08/15 19:13:46;;;;;;;13.43;11.20;;;22.60;90.90;;;;;;5002278;28;20053;-70
2022/08/15 19:16:22;;;;;;;11.77;10.60;;;22.60;90.90;;;;;;5011164;28;20046;-70
2022/08/15 19:18:53;;;;;;;13.13;11.80;;;22.60;91.10;;;;;;4976888;28;20050;-70
2022/08/15 19:21:20;;;;;;;12.23;10.98;;;22.50;91.00;;;;;;5008623;28;20033;-70
2022/08/15 19:23:48;;;;;;;12.40;10.57;;;22.60;91.20;;;;;;5004642;28;20129;-70
2022/08/15 19:26:26;;;;;;;14.10;11.00;;;22.60;91.00;;;;;;5010847;28;20116;-71
2022/08/15 19:29:16;;;;;;;12.43;10.70;;;22.60;91.10;;;;;;5015358;28;20050;-70
2022/08/15 19:31:58;;;;;;;11.90;10.18;;;22.50;90.90;;;;;;5037671;28;20584;-71
2022/08/15 19:34:39;;;;;;;13.07;11.77;;;22.50;91.00;;;;;;4993477;28;20054;-70
2022/08/15 19:37:32;;;;;;;12.48;10.85;;;22.50;91.00;;;;;;5058228;28;20076;-70
2022/08/15 19:40:11;;;;;;;12.38;10.93;;;22.40;90.80;;;;;;5015279;28;20092;-70
2022/08/15 19:42:43;;;;;;;13.35;10.98;;;22.40;90.90;;;;;;5011527;28;20042;-71
2022/08/15 19:45:31;;;;;;;16.50;11.88;;;22.30;91.00;;;;;;5011148;28;20531;-70
2022/08/15 19:48:28;;;;;;;13.73;11.10;;;22.20;90.90;;;;;;5024025;28;20052;-70
2022/08/15 19:54:17;;;;;;;16.02;12.20;;;22.10;91.20;;;;;;5007335;28;20076;-71
2022/08/15 19:56:58;;;;;;;18.48;14.45;;;22.10;91.40;;;;;;5005597;28;20046;-70
2022/08/15 19:59:34;;;;;;;13.50;11.00;;;22.10;91.70;;;;;;5027167;28;20053;-70
2022/08/15 20:02:24;;;;;;;14.38;12.48;;;22.00;91.50;;;;;;5024289;28;20050;-71
2022/08/15 20:05:15;;;;;;;15.10;12.73;;;22.00;91.70;;;;;;5071305;28;20041;-70
2022/08/15 20:07:55;;;;;;;12.63;11.32;;;21.80;92.20;;;;;;5017546;28;20063;-70
2022/08/15 20:10:43;;;;;;;12.85;11.07;;;21.80;92.00;;;;;;5048332;28;20049;-72
2022/08/15 20:13:15;;;;;;;13.38;11.98;;;21.90;91.90;;;;;;5037606;28;20046;-70
2022/08/15 20:15:44;;;;;;;15.00;12.43;;;21.80;91.80;;;;;;5011420;28;20417;-70
2022/08/15 20:18:33;;;;;;;16.75;12.63;;;21.90;91.70;;;;;;5022219;28;20056;-70
2022/08/15 20:21:09;;;;;;;15.70;13.23;;;21.80;91.90;;;;;;5030276;28;20045;-70
2022/08/15 20:23:40;;;;;;;15.95;13.60;;;21.70;92.30;;;;;;5014382;28;20049;-71
2022/08/15 20:26:06;;;;;;;18.35;12.68;;;21.60;92.30;;;;;;5010022;28;20479;-71
2022/08/15 20:28:33;;;;;;;14.70;11.73;;;21.60;92.30;;;;;;5030991;28;20073;-72
2022/08/15 20:31:02;;;;;;;14.15;12.23;;;21.60;92.20;;;;;;5030063;28;20064;-71
2022/08/15 20:33:28;;;;;;;14.93;12.40;;;21.60;92.20;;;;;;4996137;28;20116;-71
2022/08/15 20:36:01;;;;;;;17.13;13.80;;;21.60;92.30;;;;;;5036932;28;20045;-71
2022/08/15 20:38:33;;;;;;;13.48;12.07;;;21.60;92.20;;;;;;5004962;28;20127;-71
2022/08/15 20:41:06;;;;;;;12.15;10.95;;;21.50;92.40;;;;;;5000110;28;20054;-70
2022/08/15 20:43:47;;;;;;;15.90;11.75;;;21.50;92.30;;;;;;5026884;28;20044;-71
2022/08/15 20:46:27;;;;;;;12.98;11.55;;;21.50;92.10;;;;;;5001286;28;20147;-70
2022/08/15 20:48:55;;;;;;;15.95;12.00;;;21.50;92.00;;;;;;5031374;28;20049;-71
2022/08/15 20:51:27;;;;;;;15.55;11.23;;;21.50;92.10;;;;;;5050069;28;20052;-70
2022/08/15 20:53:53;;;;;;;13.20;11.82;;;21.50;92.10;;;;;;5028527;28;20127;-70
2022/08/15 20:56:19;;;;;;;12.57;11.20;;;21.50;92.10;;;;;;5049188;28;20132;-71
2022/08/15 20:58:45;;;;;;;12.93;11.05;;;21.50;92.10;;;;;;5033937;28;20382;-71
2022/08/15 21:01:16;;;;;;;14.65;12.40;;;21.40;91.80;;;;;;5029716;28;20041;-71
2022/08/15 21:03:50;;;;;;;16.45;11.40;;;21.40;91.90;;;;;;5018924;28;20118;-71
2022/08/15 21:06:50;;;;;;;18.30;13.45;;;21.40;91.70;;;;;;5021877;28;20633;-70
2022/08/15 21:09:41;;;;;;;17.20;12.90;;;21.30;91.80;;;;;;5008565;28;20152;-71
2022/08/15 21:12:41;;;;;;;17.40;13.23;;;21.30;92.00;;;;;;5031050;28;20050;-71
2022/08/15 21:15:29;;;;;;;13.90;12.48;;;21.30;91.90;;;;;;5040909;28;20037;-71
2022/08/15 21:18:19;;;;;;;15.32;12.05;;;21.30;91.70;;;;;;5022828;28;20050;-71
2022/08/15 21:20:50;;;;;;;16.80;11.32;;;21.30;91.80;;;;;;5065916;28;20398;-71
2022/08/15 21:23:22;;;;;;;14.85;11.35;;;21.20;91.60;;;;;;5014286;28;20541;-71
2022/08/15 21:25:58;;;;;;;11.52;10.38;;;21.20;91.50;;;;;;5017934;28;20056;-70
2022/08/15 21:28:38;;;;;;;12.25;10.90;;;21.20;91.40;;;;;;5028269;28;20191;-71
2022/08/15 21:31:26;;;;;;;12.90;11.60;;;21.20;91.20;;;;;;4999242;28;20103;-69
2022/08/15 21:33:52;;;;;;;12.50;11.20;;;21.20;91.40;;;;;;5019549;28;20082;-71
2022/08/15 21:36:20;;;;;;;14.05;10.93;;;21.10;91.50;;;;;;5023594;28;20069;-71
2022/08/15 21:38:54;;;;;;;;;;;21.10;91.50;;;;;;5027573;28;20076;-71
2022/08/15 21:41:40;;;;;;;13.20;10.55;;;21.10;91.40;;;;;;5062084;28;19955;-71
2022/08/15 21:44:29;;;;;;;13.32;11.25;;;21.10;91.40;;;;;;5020055;28;20534;-71
2022/08/15 21:46:55;;;;;;;14.77;10.48;;;21.10;91.40;;;;;;5008737;28;20046;-71
2022/08/15 21:49:33;;;;;;;12.48;11.25;;;21.00;91.30;;;;;;5029924;28;20049;-71
2022/08/15 21:52:15;;;;;;;16.30;12.70;;;21.00;91.30;;;;;;5026582;28;20053;-72
2022/08/15 21:54:50;;;;;;;12.73;11.43;;;21.00;91.60;;;;;;5013430;28;20460;-71
2022/08/15 21:57:34;;;;;;;14.23;12.48;;;21.00;91.50;;;;;;5032672;28;20132;-71
2022/08/15 22:00:04;;;;;;;13.38;11.27;;;21.00;91.50;;;;;;5009101;28;20056;-71
2022/08/15 22:02:44;;;;;;;14.13;11.73;;;21.00;91.40;;;;;;5018055;28;21673;-71
2022/08/15 22:05:09;;;;;;;13.15;11.15;;;21.00;91.40;;;;;;5015645;28;20058;-71
2022/08/15 22:07:35;;;;;;;14.52;10.38;;;21.00;91.20;;;;;;5016284;28;20050;-71
2022/08/15 22:10:01;;;;;;;12.73;11.27;;;21.00;91.10;;;;;;5017379;28;20075;-71
2022/08/15 22:12:29;;;;;;;11.82;10.65;;;21.00;90.90;;;;;;5022068;28;20045;-71
2022/08/15 22:14:55;;;;;;;11.88;10.68;;;21.00;90.70;;;;;;5008999;28;20050;-72
2022/08/15 22:17:21;;;;;;;14.57;11.30;;;21.00;90.60;;;;;;5009357;28;20506;-71
2022/08/15 22:19:47;;;;;;;12.80;11.43;;;21.00;90.60;;;;;;5018034;28;20054;-70
2022/08/15 22:22:13;;;;;;;13.70;11.45;;;21.00;90.60;;;;;;5007629;28;20049;-71
2022/08/15 22:24:39;;;;;;;14.25;12.27;;;21.00;90.70;;;;;;5003587;28;20124;-70
2022/08/15 22:27:05;;;;;;;14.13;12.15;;;21.00;90.80;;;;;;5023791;28;20056;-71
2022/08/15 22:29:36;;;;;;;12.27;11.07;;;21.00;90.80;;;;;;5005361;28;20133;-70
2022/08/15 22:32:07;;;;;;;15.68;12.15;;;21.00;90.60;;;;;;5005114;28;20760;-71
2022/08/15 22:34:35;;;;;;;14.52;11.75;;;21.00;90.80;;;;;;5011568;28;20045;-70
2022/08/15 22:37:00;;;;;;;12.85;11.55;;;20.90;90.80;;;;;;5004359;28;20053;-71
2022/08/15 22:39:28;;;;;;;13.25;11.73;;;20.90;90.80;;;;;;5008081;28;20052;-71
2022/08/15 22:41:56;;;;;;;15.13;13.25;;;20.90;90.80;;;;;;5002689;28;20045;-71